createdAt,value
2023-05-09T00:00:14.683Z,11.13
2023-05-09T00:02:43.675Z,10.30
2023-05-09T00:05:12.796Z,7.93
2023-05-09T00:07:41.739Z,6.43
2023-05-09T00:10:10.607Z,7.50
2023-05-09T00:12:39.352Z,5.97
2023-05-09T00:15:11.736Z,4.65
2023-05-09T00:17:41.793Z,4.53
2023-05-09T00:20:13.655Z,6.60
2023-05-09T00:22:42.844Z,7.57
2023-05-09T00:25:13.033Z,8.20
2023-05-09T00:27:42.107Z,8.75
2023-05-09T00:30:10.512Z,16.20
2023-05-09T00:32:39.165Z,8.38
2023-05-09T00:35:08.664Z,8.90
2023-05-09T00:37:37.455Z,6.63
2023-05-09T00:40:07.999Z,6.03
2023-05-09T00:42:37.991Z,13.60
2023-05-09T00:45:06.820Z,5.70
2023-05-09T00:47:37.087Z,7.07
2023-05-09T00:50:06.227Z,5.15
2023-05-09T00:52:35.889Z,5.57
2023-05-09T00:55:04.812Z,4.97
2023-05-09T00:57:33.185Z,6.00
2023-05-09T01:00:03.050Z,5.88
2023-05-09T01:02:33.249Z,6.88
2023-05-09T01:05:02.194Z,5.32
2023-05-09T01:07:36.953Z,4.13
2023-05-09T01:10:23.738Z,2.22
2023-05-09T01:13:04.700Z,3.70
2023-05-09T01:15:42.392Z,5.18
2023-05-09T01:18:27.670Z,3.42
2023-05-09T01:21:13.412Z,4.18
2023-05-09T01:24:01.079Z,2.55
2023-05-09T01:26:49.148Z,2.28
2023-05-09T01:29:38.627Z,5.93
2023-05-09T01:32:17.512Z,2.35
2023-05-09T01:34:47.402Z,1.95
2023-05-09T01:37:20.136Z,1.35
2023-05-09T01:39:51.726Z,0.80
2023-05-09T01:42:22.559Z,3.90
2023-05-09T01:44:52.389Z,1.70
2023-05-09T01:47:22.683Z,2.17
2023-05-09T01:49:53.317Z,2.80
2023-05-09T01:52:22.764Z,1.98
2023-05-09T01:54:53.090Z,1.38
2023-05-09T01:57:22.476Z,1.90
2023-05-09T01:59:52.639Z,1.52
2023-05-09T02:02:21.808Z,1.35
2023-05-09T02:04:51.923Z,1.90
2023-05-09T02:07:21.600Z,2.55
2023-05-09T02:09:52.766Z,2.38
2023-05-09T02:12:23.135Z,3.55
2023-05-09T02:14:52.489Z,2.38
2023-05-09T02:17:21.063Z,1.63
2023-05-09T02:19:49.779Z,1.58
2023-05-09T02:22:17.955Z,2.25
2023-05-09T02:24:46.926Z,2.80
2023-05-09T02:27:17.141Z,2.17
2023-05-09T02:29:50.693Z,4.47
2023-05-09T02:32:24.948Z,1.30
2023-05-09T02:34:55.879Z,2.00
2023-05-09T02:37:26.121Z,2.55
2023-05-09T02:39:54.897Z,2.38
2023-05-09T02:42:30.236Z,3.75
2023-05-09T02:44:58.594Z,3.40
2023-05-09T02:47:27.580Z,2.70
2023-05-09T02:49:56.271Z,4.80
2023-05-09T02:52:24.901Z,4.18
2023-05-09T02:54:53.646Z,4.50
2023-05-09T02:57:22.586Z,8.15
2023-05-09T02:59:50.900Z,8.70
2023-05-09T03:02:19.038Z,5.82
2023-05-09T03:04:47.760Z,13.70
2023-05-09T03:07:16.392Z,5.95
2023-05-09T03:09:44.822Z,7.05
2023-05-09T03:12:13.392Z,7.32
2023-05-09T03:14:41.415Z,8.52
2023-05-09T03:17:09.601Z,6.30
2023-05-09T03:19:38.418Z,8.25
2023-05-09T03:22:06.572Z,10.57
2023-05-09T03:24:35.149Z,6.65
2023-05-09T03:27:03.741Z,5.05
2023-05-09T03:29:31.973Z,6.82
2023-05-09T03:32:00.685Z,7.22
2023-05-09T03:34:29.117Z,9.85
2023-05-09T03:36:57.887Z,4.45
2023-05-09T03:39:27.467Z,5.00
2023-05-09T03:41:56.107Z,5.70
2023-05-09T03:44:26.010Z,7.15
2023-05-09T03:46:54.719Z,6.97
2023-05-09T03:49:23.426Z,8.77
2023-05-09T03:51:52.790Z,7.35
2023-05-09T03:54:21.454Z,5.05
2023-05-09T03:56:49.973Z,7.38
2023-05-09T03:59:18.276Z,5.68
2023-05-09T04:01:47.197Z,8.40
2023-05-09T04:04:15.826Z,7.90
2023-05-09T04:06:44.511Z,6.32
2023-05-09T04:09:13.184Z,8.93
2023-05-09T04:11:42.119Z,10.13
2023-05-09T04:14:10.703Z,9.90
2023-05-09T04:16:38.711Z,9.05
2023-05-09T04:19:08.685Z,7.93
2023-05-09T04:21:36.775Z,8.32
2023-05-09T04:24:05.413Z,8.82
2023-05-09T04:26:35.013Z,9.68
2023-05-09T04:29:03.533Z,8.15
2023-05-09T04:31:32.759Z,7.95
2023-05-09T04:34:00.897Z,8.85
2023-05-09T04:36:30.332Z,8.75
2023-05-09T04:38:58.601Z,8.05
2023-05-09T04:41:26.954Z,7.82
2023-05-09T04:43:55.136Z,5.50
2023-05-09T04:46:25.648Z,6.25
2023-05-09T04:48:54.510Z,7.88
2023-05-09T04:51:22.783Z,5.53
2023-05-09T04:53:51.289Z,6.05
2023-05-09T04:56:19.949Z,5.20
2023-05-09T04:58:49.113Z,3.55
2023-05-09T05:01:18.062Z,5.25
2023-05-09T05:03:47.002Z,6.22
2023-05-09T05:06:15.609Z,4.68
2023-05-09T05:08:44.539Z,8.13
2023-05-09T05:11:13.137Z,3.92
2023-05-09T05:13:42.035Z,4.68
2023-05-09T05:16:10.665Z,4.57
2023-05-09T05:18:39.277Z,5.40
2023-05-09T05:21:07.932Z,6.38
2023-05-09T05:23:36.253Z,5.88
2023-05-09T05:26:04.856Z,4.55
2023-05-09T05:28:33.469Z,5.10
2023-05-09T05:31:03.540Z,5.03
2023-05-09T05:33:31.639Z,6.65
2023-05-09T05:36:00.013Z,4.70
2023-05-09T05:38:28.617Z,5.82
2023-05-09T05:40:57.211Z,8.45
2023-05-09T05:43:25.916Z,6.60
2023-05-09T05:45:54.314Z,5.95
2023-05-09T05:48:22.944Z,8.20
2023-05-09T05:50:51.112Z,9.77
2023-05-09T05:53:19.369Z,5.70
2023-05-09T05:55:47.833Z,6.22
2023-05-09T05:58:17.132Z,7.40
2023-05-09T06:00:45.778Z,5.78
2023-05-09T06:03:16.139Z,6.50
2023-05-09T06:05:45.591Z,6.47
2023-05-09T06:08:15.176Z,6.28
2023-05-09T06:10:43.389Z,6.60
2023-05-09T06:13:11.669Z,6.53
2023-05-09T06:15:41.286Z,6.15
2023-05-09T06:18:10.309Z,6.43
2023-05-09T06:20:38.932Z,10.50
2023-05-09T06:23:07.518Z,7.85
2023-05-09T06:25:36.186Z,5.47
2023-05-09T06:28:05.040Z,6.28
2023-05-09T06:30:33.599Z,5.15
2023-05-09T06:33:02.488Z,6.68
2023-05-09T06:35:31.081Z,4.68
2023-05-09T06:38:00.667Z,6.85
2023-05-09T06:40:28.916Z,4.85
2023-05-09T06:42:57.258Z,6.93
2023-05-09T06:45:25.441Z,5.65
2023-05-09T06:47:53.947Z,5.75
2023-05-09T06:50:22.698Z,5.55
2023-05-09T06:52:51.317Z,5.15
2023-05-09T06:55:20.000Z,5.65
2023-05-09T06:57:48.655Z,5.95
2023-05-09T07:00:18.934Z,5.95
2023-05-09T07:02:47.929Z,7.45
2023-05-09T07:05:17.722Z,6.97
2023-05-09T07:07:46.460Z,6.05
2023-05-09T07:10:15.092Z,7.38
2023-05-09T07:12:43.686Z,6.60
2023-05-09T07:15:12.722Z,6.65
2023-05-09T07:17:41.784Z,6.85
2023-05-09T07:20:10.956Z,6.82
2023-05-09T07:22:39.605Z,7.97
2023-05-09T07:25:11.886Z,6.32
2023-05-09T07:27:42.975Z,6.32
2023-05-09T07:30:11.710Z,7.07
2023-05-09T07:32:39.934Z,7.50
2023-05-09T07:35:08.819Z,8.00
2023-05-09T07:37:37.471Z,7.80
2023-05-09T07:40:07.336Z,8.38
2023-05-09T07:42:36.040Z,8.63
2023-05-09T07:45:07.511Z,7.80
2023-05-09T07:47:38.820Z,8.82
2023-05-09T07:50:08.162Z,9.85
2023-05-09T07:52:36.796Z,9.82
2023-05-09T07:55:05.608Z,10.35
2023-05-09T07:57:34.232Z,11.00
2023-05-09T08:00:03.155Z,9.88
2023-05-09T08:02:31.813Z,10.55
2023-05-09T08:05:00.480Z,10.30
2023-05-09T08:07:29.154Z,11.40
2023-05-09T08:09:57.689Z,11.25
2023-05-09T08:12:26.362Z,10.70
2023-05-09T08:14:54.634Z,9.77
2023-05-09T08:17:22.818Z,9.35
2023-05-09T08:19:50.942Z,10.38
2023-05-09T08:22:20.925Z,12.23
2023-05-09T08:24:49.660Z,10.43
2023-05-09T08:27:17.999Z,17.95
2023-05-09T08:29:46.927Z,11.80
2023-05-09T08:32:15.968Z,15.05
2023-05-09T08:34:44.524Z,13.32
2023-05-09T08:37:15.264Z,10.25
2023-05-09T08:39:44.037Z,10.85
2023-05-09T08:42:12.932Z,12.52
2023-05-09T08:44:41.122Z,11.68
2023-05-09T08:47:09.748Z,14.77
2023-05-09T08:49:38.521Z,17.23
2023-05-09T08:52:06.877Z,14.32
2023-05-09T08:54:36.700Z,15.82
2023-05-09T08:57:05.357Z,13.93
2023-05-09T08:59:38.143Z,15.23
2023-05-09T09:02:09.177Z,22.60
2023-05-09T09:04:37.800Z,15.80
2023-05-09T09:07:09.195Z,22.20
2023-05-09T09:09:38.458Z,21.05
2023-05-09T09:12:11.148Z,20.27
2023-05-09T09:14:43.821Z,17.90
2023-05-09T09:17:18.479Z,17.88
2023-05-09T09:19:50.140Z,20.13
2023-05-09T09:22:22.252Z,17.83
2023-05-09T09:24:51.273Z,20.73
2023-05-09T09:27:20.642Z,20.88
2023-05-09T09:29:49.197Z,21.52
2023-05-09T09:32:19.586Z,20.00
2023-05-09T09:34:51.036Z,20.85
2023-05-09T09:37:25.676Z,18.75
2023-05-09T09:39:58.367Z,21.25
2023-05-09T09:42:28.074Z,20.67
2023-05-09T09:45:04.905Z,20.98
2023-05-09T09:47:34.586Z,21.27
2023-05-09T09:50:15.726Z,19.83
2023-05-09T09:52:46.157Z,22.48
2023-05-09T09:55:14.981Z,20.88
2023-05-09T09:57:46.468Z,23.40
2023-05-09T10:00:17.853Z,16.45
2023-05-09T10:02:58.081Z,22.30
2023-05-09T10:05:31.962Z,18.83
2023-05-09T10:08:06.478Z,18.58
2023-05-09T10:10:37.023Z,17.95
2023-05-09T10:13:10.795Z,18.00
2023-05-09T10:15:52.471Z,17.65
2023-05-09T10:18:29.962Z,18.17
2023-05-09T10:21:04.906Z,16.00
2023-05-09T10:23:38.930Z,17.75
2023-05-09T10:26:18.682Z,19.52
2023-05-09T10:28:50.607Z,18.17
2023-05-09T10:31:30.230Z,23.10
2023-05-09T10:34:03.360Z,19.67
2023-05-09T10:36:32.610Z,20.02
2023-05-09T10:39:02.691Z,18.13
2023-05-09T10:41:32.547Z,21.55
2023-05-09T10:44:01.854Z,20.67
2023-05-09T10:46:30.907Z,19.20
2023-05-09T10:49:00.493Z,21.67
2023-05-09T10:51:29.118Z,18.80
2023-05-09T10:53:57.946Z,27.88
2023-05-09T10:56:26.584Z,22.05
2023-05-09T10:58:56.042Z,20.95
2023-05-09T11:01:34.099Z,18.05
2023-05-09T11:04:04.267Z,19.25
2023-05-09T11:06:52.457Z,19.65
2023-05-09T11:09:42.577Z,21.52
2023-05-09T11:12:14.775Z,30.55
2023-05-09T11:14:57.407Z,22.95
2023-05-09T11:17:33.827Z,47.80
2023-05-09T11:20:07.072Z,32.40
2023-05-09T11:22:46.473Z,25.33
2023-05-09T11:25:16.619Z,32.80
2023-05-09T11:27:50.983Z,32.67
2023-05-09T11:30:20.990Z,34.70
2023-05-09T11:32:56.523Z,26.83
2023-05-09T11:35:28.293Z,28.02
2023-05-09T11:38:07.715Z,47.67
2023-05-09T11:40:36.569Z,47.00
2023-05-09T11:43:04.784Z,32.25
2023-05-09T11:45:34.865Z,43.33
2023-05-09T11:48:09.892Z,32.35
2023-05-09T11:50:38.328Z,36.88
2023-05-09T11:53:09.573Z,35.63
2023-05-09T11:55:39.676Z,31.75
2023-05-09T11:58:09.015Z,30.38
2023-05-09T12:00:38.867Z,48.63
2023-05-09T12:03:08.825Z,42.65
2023-05-09T12:05:40.914Z,33.03
2023-05-09T12:08:10.946Z,41.08
2023-05-09T12:10:40.979Z,34.95
2023-05-09T12:13:12.518Z,31.17
2023-05-09T12:15:43.442Z,30.40
2023-05-09T12:18:12.103Z,31.75
2023-05-09T12:20:44.302Z,31.42
2023-05-09T12:23:13.991Z,39.40
2023-05-09T12:25:55.413Z,35.70
2023-05-09T12:28:26.099Z,28.77
2023-05-09T12:30:56.412Z,29.17
2023-05-09T12:33:25.605Z,29.65
2023-05-09T12:36:12.183Z,28.90
2023-05-09T12:38:41.425Z,30.45
2023-05-09T12:41:30.940Z,28.90
2023-05-09T12:44:02.459Z,23.90
2023-05-09T12:46:31.124Z,27.08
2023-05-09T12:48:59.788Z,30.33
2023-05-09T12:51:28.393Z,22.98
2023-05-09T12:53:57.060Z,28.95
2023-05-09T12:56:25.274Z,22.00
2023-05-09T12:58:58.108Z,24.15
2023-05-09T13:01:31.140Z,21.35
2023-05-09T13:04:07.781Z,20.85
2023-05-09T13:06:37.336Z,20.13
2023-05-09T13:09:10.359Z,22.77
2023-05-09T13:11:38.818Z,25.30
2023-05-09T13:14:08.378Z,21.88
2023-05-09T13:16:37.220Z,23.85
2023-05-09T13:19:06.853Z,19.95
2023-05-09T13:21:36.388Z,20.95
2023-05-09T13:24:07.924Z,20.92
2023-05-09T13:26:38.374Z,19.40
2023-05-09T13:29:06.986Z,23.27
2023-05-09T13:31:35.221Z,19.65
2023-05-09T13:34:03.803Z,18.90
2023-05-09T13:36:33.089Z,18.33
2023-05-09T13:39:01.228Z,20.48
2023-05-09T13:41:31.781Z,16.63
2023-05-09T13:44:00.321Z,22.52
2023-05-09T13:46:28.925Z,22.17
2023-05-09T13:48:57.794Z,19.30
2023-05-09T13:51:26.395Z,24.58
2023-05-09T13:53:55.021Z,17.30
2023-05-09T13:56:23.872Z,12.77
2023-05-09T13:58:52.469Z,16.05
2023-05-09T14:01:22.677Z,13.25
2023-05-09T14:03:51.022Z,12.35
2023-05-09T14:06:23.164Z,11.00
2023-05-09T14:08:52.063Z,9.88
2023-05-09T14:11:20.673Z,10.90
2023-05-09T14:13:49.276Z,8.20
2023-05-09T14:16:17.518Z,6.68
2023-05-09T14:18:45.709Z,8.02
2023-05-09T14:21:14.296Z,6.55
2023-05-09T14:23:43.902Z,6.88
2023-05-09T14:26:12.572Z,5.38
2023-05-09T14:28:41.009Z,7.68
2023-05-09T14:31:09.977Z,5.75
2023-05-09T14:33:40.132Z,7.35
2023-05-09T14:36:10.521Z,6.80
2023-05-09T14:38:38.822Z,8.15
2023-05-09T14:41:08.377Z,6.85
2023-05-09T14:43:36.985Z,8.85
2023-05-09T14:46:05.189Z,7.80
2023-05-09T14:48:34.879Z,10.23
2023-05-09T14:51:03.525Z,5.13
2023-05-09T14:53:31.920Z,6.10
2023-05-09T14:56:00.287Z,7.35
2023-05-09T14:58:32.153Z,7.00
2023-05-09T15:01:00.647Z,6.68
2023-05-09T15:03:29.896Z,7.93
2023-05-09T15:05:59.602Z,6.43
2023-05-09T15:08:28.028Z,7.95
2023-05-09T15:10:56.412Z,6.40
2023-05-09T15:13:26.243Z,6.45
2023-05-09T15:15:55.127Z,6.07
2023-05-09T15:18:24.998Z,9.23
2023-05-09T15:20:53.096Z,9.13
2023-05-09T15:23:21.790Z,8.07
2023-05-09T15:25:50.065Z,7.35
2023-05-09T15:28:18.252Z,7.20
2023-05-09T15:30:46.854Z,8.68
2023-05-09T15:33:15.614Z,6.65
2023-05-09T15:35:45.473Z,7.97
2023-05-09T15:38:14.718Z,8.10
2023-05-09T15:40:43.589Z,6.10
2023-05-09T15:43:11.831Z,6.97
2023-05-09T15:45:46.066Z,7.15
2023-05-09T15:48:15.561Z,7.13
2023-05-09T15:50:46.055Z,7.20
2023-05-09T15:53:16.477Z,10.77
2023-05-09T15:55:44.767Z,7.85
2023-05-09T15:58:15.355Z,8.60
2023-05-09T16:00:43.798Z,8.52
2023-05-09T16:03:12.657Z,9.40
2023-05-09T16:05:45.202Z,7.38
2023-05-09T16:08:13.993Z,9.85
2023-05-09T16:10:42.672Z,7.25
2023-05-09T16:13:11.335Z,7.38
2023-05-09T16:15:42.860Z,8.73
2023-05-09T16:18:11.622Z,7.22
2023-05-09T16:20:41.339Z,10.68
2023-05-09T16:23:09.974Z,8.93
2023-05-09T16:25:38.270Z,12.38
2023-05-09T16:28:08.458Z,8.55
2023-05-09T16:30:37.544Z,5.45
2023-05-09T16:33:06.206Z,7.05
2023-05-09T16:35:35.341Z,7.22
2023-05-09T16:38:04.292Z,7.63
2023-05-09T16:40:32.960Z,7.70
2023-05-09T16:43:01.507Z,6.25
2023-05-09T16:45:29.953Z,6.80
2023-05-09T16:48:00.105Z,8.80
2023-05-09T16:50:30.695Z,8.40
2023-05-09T16:52:59.330Z,7.28
2023-05-09T16:55:28.000Z,8.05
2023-05-09T16:57:56.573Z,8.60
2023-05-09T17:00:25.952Z,11.00
2023-05-09T17:02:54.139Z,11.05
2023-05-09T17:05:22.513Z,9.52
2023-05-09T17:07:52.073Z,13.02
2023-05-09T17:10:20.750Z,7.40
2023-05-09T17:12:49.495Z,10.93
2023-05-09T17:15:17.857Z,8.93
2023-05-09T17:17:48.749Z,7.38
2023-05-09T17:20:17.245Z,6.28
2023-05-09T17:22:45.764Z,5.22
2023-05-09T17:25:15.318Z,4.47
2023-05-09T17:27:45.082Z,4.65
2023-05-09T17:30:14.162Z,4.28
2023-05-09T17:32:46.194Z,6.85
2023-05-09T17:35:15.019Z,4.57
2023-05-09T17:37:43.615Z,4.05
2023-05-09T17:40:12.653Z,3.38
2023-05-09T17:42:41.632Z,2.13
2023-05-09T17:45:12.652Z,3.72
2023-05-09T17:47:41.840Z,6.53
2023-05-09T17:50:11.489Z,2.03
2023-05-09T17:52:40.144Z,2.38
2023-05-09T17:55:08.876Z,3.05
2023-05-09T17:57:37.259Z,3.22
2023-05-09T18:00:08.928Z,2.70
2023-05-09T18:02:37.902Z,2.28
2023-05-09T18:05:07.090Z,2.10
2023-05-09T18:07:35.319Z,1.13
2023-05-09T18:10:04.367Z,1.77
2023-05-09T18:12:36.868Z,1.77
2023-05-09T18:17:34.272Z,4.40
2023-05-09T18:20:03.430Z,1.80
2023-05-09T18:22:32.197Z,2.00
2023-05-09T18:25:00.866Z,1.83
2023-05-09T18:27:32.205Z,2.25
2023-05-09T18:30:00.776Z,2.55
2023-05-09T18:32:31.114Z,3.05
2023-05-09T18:34:59.702Z,4.68
2023-05-09T18:37:28.512Z,1.30
2023-05-09T18:39:57.495Z,2.67
2023-05-09T18:42:26.197Z,2.05
2023-05-09T18:44:54.730Z,1.33
2023-05-09T18:47:25.510Z,1.20
2023-05-09T18:49:54.084Z,1.60
2023-05-09T18:52:24.000Z,1.45
2023-05-09T18:54:52.219Z,3.65
2023-05-09T18:57:21.368Z,2.28
2023-05-09T18:59:53.216Z,2.33
2023-05-09T19:02:22.627Z,1.90
2023-05-09T19:04:52.657Z,2.10
2023-05-09T19:07:20.661Z,3.03
2023-05-09T19:09:52.453Z,2.00
2023-05-09T19:12:21.217Z,1.75
2023-05-09T19:14:50.329Z,1.92
2023-05-09T19:17:18.241Z,2.70
2023-05-09T19:19:46.862Z,3.67
2023-05-09T19:22:15.834Z,1.92
2023-05-09T19:24:44.159Z,2.08
2023-05-09T19:27:12.776Z,2.35
2023-05-09T19:29:41.367Z,2.30
2023-05-09T19:32:09.955Z,2.33
2023-05-09T19:34:38.363Z,1.85
2023-05-09T19:37:07.010Z,2.80
2023-05-09T19:39:35.631Z,2.55
2023-05-09T19:42:04.386Z,3.80
2023-05-09T19:44:32.889Z,3.55
2023-05-09T19:47:02.360Z,3.22
2023-05-09T19:49:31.006Z,3.30
2023-05-09T19:51:59.784Z,5.13
2023-05-09T19:54:28.800Z,3.90
2023-05-09T19:56:57.400Z,4.20
2023-05-09T19:59:25.917Z,1.95
2023-05-09T20:01:54.237Z,2.85
2023-05-09T20:04:23.585Z,6.00
2023-05-09T20:06:52.775Z,2.97
2023-05-09T20:09:22.325Z,2.20
2023-05-09T20:11:51.614Z,6.28
2023-05-09T20:14:20.183Z,2.78
2023-05-09T20:16:48.841Z,2.42
2023-05-09T20:19:18.465Z,4.57
2023-05-09T20:21:47.267Z,4.78
2023-05-09T20:24:16.034Z,4.97
2023-05-09T20:26:44.699Z,1.38
2023-05-09T20:29:13.396Z,2.42
2023-05-09T20:31:42.767Z,4.35
2023-05-09T20:34:17.818Z,1.35
2023-05-09T20:36:51.805Z,1.65
2023-05-09T20:39:24.410Z,1.90
2023-05-09T20:41:53.512Z,3.97
2023-05-09T20:44:22.094Z,2.35
2023-05-09T20:46:50.653Z,1.35
2023-05-09T20:49:19.293Z,1.58
2023-05-09T20:51:47.586Z,1.75
2023-05-09T20:54:16.173Z,2.20
2023-05-09T20:56:44.369Z,2.15
2023-05-09T20:59:12.704Z,3.67
2023-05-09T21:01:43.256Z,2.08
2023-05-09T21:04:11.838Z,1.30
2023-05-09T21:06:40.328Z,1.42
2023-05-09T21:09:09.938Z,0.90
2023-05-09T21:11:40.687Z,0.95
2023-05-09T21:14:11.261Z,1.05
2023-05-09T21:16:40.219Z,2.38
2023-05-09T21:19:10.035Z,1.08
2023-05-09T21:21:38.817Z,1.13
2023-05-09T21:24:11.437Z,2.22
2023-05-09T21:26:40.920Z,1.75
2023-05-09T21:29:10.546Z,2.85
2023-05-09T21:31:39.201Z,1.70
2023-05-09T21:34:11.281Z,0.80
2023-05-09T21:36:40.911Z,3.40
2023-05-09T21:39:10.484Z,4.03
2023-05-09T21:41:40.371Z,2.80
2023-05-09T21:44:09.261Z,2.13
2023-05-09T21:46:37.403Z,2.83
2023-05-09T21:49:05.921Z,2.38
2023-05-09T21:51:37.025Z,1.75
2023-05-09T21:54:06.456Z,2.20
2023-05-09T21:56:35.029Z,2.55
2023-05-09T21:59:04.105Z,3.33
2023-05-09T22:01:33.743Z,1.58
2023-05-09T22:04:03.501Z,6.50
2023-05-09T22:06:32.550Z,5.13
2023-05-09T22:09:01.166Z,1.98
2023-05-09T22:11:29.795Z,2.35
2023-05-09T22:13:58.546Z,1.88
2023-05-09T22:16:27.412Z,2.05
2023-05-09T22:18:56.235Z,4.05
2023-05-09T22:21:24.200Z,2.92
2023-05-09T22:23:53.896Z,4.18
2023-05-09T22:26:23.162Z,6.47
2023-05-09T22:28:52.094Z,3.75
2023-05-09T22:31:20.353Z,3.30
2023-05-09T22:33:48.567Z,1.70
2023-05-09T22:36:17.926Z,1.77
2023-05-09T22:38:46.529Z,4.15
2023-05-09T22:41:16.034Z,1.33
2023-05-09T22:43:44.392Z,1.63
2023-05-09T22:46:12.957Z,3.10
2023-05-09T22:48:41.497Z,1.95
2023-05-09T22:51:10.346Z,3.60
2023-05-09T22:53:38.618Z,6.10
2023-05-09T22:56:08.855Z,3.22
2023-05-09T22:58:38.012Z,1.33
2023-05-09T23:01:06.298Z,1.50
2023-05-09T23:03:34.925Z,2.17
2023-05-09T23:06:04.582Z,2.90
2023-05-09T23:08:32.707Z,5.90
2023-05-09T23:11:01.472Z,1.65
2023-05-09T23:13:30.138Z,5.72
2023-05-09T23:15:58.867Z,1.60
2023-05-09T23:18:29.397Z,0.90
2023-05-09T23:20:57.952Z,2.80
2023-05-09T23:23:26.165Z,3.15
2023-05-09T23:25:54.342Z,4.05
2023-05-09T23:28:27.273Z,2.20
2023-05-09T23:30:56.321Z,3.30
2023-05-09T23:33:24.914Z,1.08
2023-05-09T23:35:53.504Z,0.95
2023-05-09T23:38:22.077Z,1.77
2023-05-09T23:40:50.622Z,2.08
2023-05-09T23:43:19.475Z,2.03
2023-05-09T23:45:47.840Z,1.50
2023-05-09T23:48:16.463Z,1.27
2023-05-09T23:50:45.167Z,2.83
2023-05-09T23:53:13.786Z,1.20
2023-05-09T23:55:41.895Z,2.50
2023-05-09T23:58:10.437Z,4.50
